M I D A S
Marine Information and Data Acquisition System
Tripno 1932 of the Zeeleeuw from 2010-08-05 06:40:01 to 2010-08-05 14:38:50
Back to CruiseResearch ActivitiesStationsMapUnderway DataData graphs

EquipmentUnitsComment
TimeDGPSUTC
LatitudeDGPSDM.mWGS84
LongitudeDGPSDM.mWGS84
HeadingGyrodeg 
SOGDGPSknotsSpeed over ground
COGDGPSdegCourse over ground
DepthEcho soundermeters200 kHz
Missing or incorrect values are displayed as -999
Navigation data collected by the RV Zeeleeuw from 2010-08-05 02:50:21 to 2010-08-05 14:42:14
                                                                                    Next 1000 lines
Time Latitude Longitude Heading SOG COG Depth
2010-08-05 02:50:31 51°13.657 2°55.962 127.3 -999 185 -999
2010-08-05 02:50:36 51°13.659 2°55.962 127.3 0.1 340 -999
2010-08-05 02:50:41 51°13.66 2°55.962 127.3 -999 19 -999
2010-08-05 02:50:46 51°13.662 2°55.962 127.3 0.1 133 -999
2010-08-05 02:50:51 51°13.663 2°55.961 127.3 0.1 198 -999
2010-08-05 02:50:56 51°13.664 2°55.961 127.3 -999 233 -999
2010-08-05 02:51:01 51°13.664 2°55.961 127.3 -999 267 -999
2010-08-05 02:51:06 51°13.664 2°55.961 127.3 -999 181 -999
2010-08-05 02:51:10 51°13.664 2°55.961 127.3 -999 166 -999
2010-08-05 02:51:16 51°13.665 2°55.961 127.3 -999 351 -999
2010-08-05 02:51:21 51°13.665 2°55.961 127.3 -999 336 -999
2010-08-05 02:51:26 51°13.665 2°55.961 127.2 0.1 327 -999
2010-08-05 02:51:30 51°13.665 2°55.961 127.2 0.1 351 -999
2010-08-05 02:51:36 51°13.665 2°55.961 127.2 0.1 332 -999
2010-08-05 02:51:41 51°13.665 2°55.961 127.2 0.1 337 -999
2010-08-05 02:51:46 51°13.665 2°55.961 127.2 0.1 338 -999
2010-08-05 02:51:50 51°13.665 2°55.961 127.2 -999 284 -999
2010-08-05 02:51:56 51°13.665 2°55.961 127.2 0.1 167 -999
2010-08-05 02:52:01 51°13.665 2°55.961 127.2 -999 1 -999
2010-08-05 02:52:06 51°13.662 2°55.962 127.2 -999 96 -999
2010-08-05 02:52:11 51°13.661 2°55.962 127.2 -999 2 -999
2010-08-05 02:52:16 51°13.66 2°55.961 127.2 -999 348 -999
2010-08-05 02:52:21 51°13.66 2°55.961 127.2 -999 342 -999
2010-08-05 02:52:26 51°13.659 2°55.961 127.2 -999 346 -999
2010-08-05 02:52:30 51°13.659 2°55.961 127.2 -999 6 -999
2010-08-05 02:52:36 51°13.659 2°55.961 127.2 -999 6 -999
2010-08-05 02:52:41 51°13.659 2°55.961 127.2 -999 11 -999
2010-08-05 02:52:46 51°13.659 2°55.961 127.2 -999 327 -999
2010-08-05 02:52:50 51°13.657 2°55.961 127.2 0.1 324 -999
2010-08-05 02:52:56 51°13.658 2°55.961 127.2 -999 326 -999
2010-08-05 02:53:01 51°13.658 2°55.962 127.2 -999 338 -999
2010-08-05 02:53:06 51°13.659 2°55.962 127.2 -999 344 -999
2010-08-05 02:53:11 51°13.659 2°55.962 127.2 -999 341 -999
2010-08-05 02:53:16 51°13.659 2°55.962 127.2 -999 359 -999
2010-08-05 02:53:21 51°13.659 2°55.962 127.2 -999 359 -999
2010-08-05 02:53:26 51°13.66 2°55.963 127.2 -999 350 -999
2010-08-05 02:53:31 51°13.66 2°55.962 127.2 -999 2 -999
2010-08-05 02:53:36 51°13.66 2°55.962 127.2 -999 351 -999
2010-08-05 02:53:41 51°13.657 2°55.962 127.2 0.1 345 -999
2010-08-05 02:53:46 51°13.656 2°55.962 127.2 -999 206 -999
2010-08-05 02:53:51 51°13.657 2°55.963 127.2 0.1 1 -999
2010-08-05 02:53:56 51°13.658 2°55.963 127.2 -999 355 -999
2010-08-05 02:54:01 51°13.66 2°55.963 127.2 -999 10 -999
2010-08-05 02:54:06 51°13.661 2°55.963 127.2 -999 3 -999
2010-08-05 02:54:10 51°13.661 2°55.963 127.2 -999 10 -999
2010-08-05 02:54:16 51°13.661 2°55.964 127.2 -999 11 -999
2010-08-05 02:54:21 51°13.662 2°55.964 127.2 -999 4 -999
2010-08-05 02:54:26 51°13.664 2°55.964 127.2 -999 339 -999
2010-08-05 02:54:31 51°13.667 2°55.964 127.2 0.1 186 -999
2010-08-05 02:54:36 51°13.67 2°55.964 127.2 0.2 165 -999
2010-08-05 02:54:41 51°13.671 2°55.964 127.2 0.1 159 -999
2010-08-05 02:54:46 51°13.672 2°55.964 127.3 -999 333 -999
2010-08-05 02:54:51 51°13.672 2°55.964 127.3 -999 57 -999
2010-08-05 02:54:56 51°13.671 2°55.964 127.3 -999 143 -999
2010-08-05 02:55:01 51°13.672 2°55.964 127.3 0.2 339 -999
2010-08-05 02:55:06 51°13.671 2°55.964 127.3 0.1 330 -999
2010-08-05 02:55:10 51°13.671 2°55.964 127.3 -999 266 -999
2010-08-05 02:55:16 51°13.67 2°55.963 127.3 -999 183 -999
2010-08-05 02:55:21 51°13.669 2°55.963 127.3 0.1 329 -999
2010-08-05 02:55:26 51°13.669 2°55.963 127.3 -999 329 -999
2010-08-05 02:55:30 51°13.669 2°55.963 127.3 -999 325 -999
2010-08-05 02:55:36 51°13.667 2°55.963 127.3 -999 204 -999
2010-08-05 02:55:41 51°13.663 2°55.963 127.3 0.1 169 -999
2010-08-05 02:55:46 51°13.662 2°55.963 127.3 -999 85 -999
2010-08-05 02:55:51 51°13.661 2°55.962 127.3 -999 348 -999
2010-08-05 02:55:56 51°13.661 2°55.962 127.3 -999 327 -999
2010-08-05 02:56:01 51°13.662 2°55.963 127.3 -999 21 -999
2010-08-05 02:56:06 51°13.662 2°55.963 127.3 0.1 25 -999
2010-08-05 02:56:11 51°13.662 2°55.963 127.3 -999 12 -999
2010-08-05 02:56:16 51°13.662 2°55.963 127.3 -999 12 -999
2010-08-05 02:56:21 51°13.662 2°55.963 127.3 -999 22 -999
2010-08-05 02:56:26 51°13.659 2°55.964 127.4 -999 21 -999
2010-08-05 02:56:31 51°13.656 2°55.965 127.4 -999 322 -999
2010-08-05 02:56:36 51°13.656 2°55.967 127.4 -999 344 -999
2010-08-05 02:56:41 51°13.656 2°55.968 127.4 -999 333 -999
2010-08-05 02:56:46 51°13.658 2°55.968 127.4 -999 298 -999
2010-08-05 02:56:51 51°13.658 2°55.968 127.4 -999 282 -999
2010-08-05 02:56:56 51°13.658 2°55.968 127.2 -999 114 -999
2010-08-05 02:57:01 51°13.66 2°55.97 127.2 -999 356 -999
2010-08-05 02:57:06 51°13.659 2°55.97 127.2 -999 221 -999
2010-08-05 02:57:11 51°13.656 2°55.969 127.2 0.1 352 -999
2010-08-05 02:57:16 51°13.655 2°55.968 127.2 0.1 355 -999
2010-08-05 02:57:21 51°13.655 2°55.968 127.2 -999 353 -999
2010-08-05 02:57:25 51°13.656 2°55.969 127.2 -999 342 -999
2010-08-05 02:57:31 51°13.655 2°55.968 127.2 -999 357 -999
2010-08-05 02:57:36 51°13.654 2°55.968 127.3 0.1 359 -999
2010-08-05 02:57:41 51°13.654 2°55.968 127.3 0.1 4 -999
2010-08-05 02:57:46 51°13.654 2°55.967 127.3 0.1 8 -999
2010-08-05 02:57:50 51°13.654 2°55.967 127.3 0.1 8 -999
2010-08-05 02:57:56 51°13.655 2°55.967 127.3 0.1 3 -999
2010-08-05 02:58:01 51°13.655 2°55.967 127.3 0.1 5 -999
2010-08-05 02:58:06 51°13.655 2°55.966 127.3 -999 -999 -999
2010-08-05 02:58:11 51°13.655 2°55.966 127.3 -999 8 -999
2010-08-05 02:58:16 51°13.655 2°55.966 127.3 -999 17 -999
2010-08-05 02:58:21 51°13.656 2°55.965 127.4 -999 21 -999
2010-08-05 02:58:26 51°13.656 2°55.965 127.4 -999 22 -999
2010-08-05 02:58:30 51°13.656 2°55.965 127.4 -999 27 -999
2010-08-05 02:58:36 51°13.656 2°55.965 127.5 -999 31 -999
2010-08-05 02:58:41 51°13.657 2°55.964 127.5 0.1 21 -999
2010-08-05 02:58:46 51°13.657 2°55.964 127.5 0.1 19 -999
2010-08-05 02:58:51 51°13.657 2°55.964 127.5 0.1 17 -999
2010-08-05 02:58:56 51°13.658 2°55.964 127.5 -999 13 -999
2010-08-05 02:59:01 51°13.658 2°55.964 127.6 -999 18 -999
2010-08-05 02:59:06 51°13.658 2°55.964 127.6 -999 18 -999
2010-08-05 02:59:11 51°13.659 2°55.964 127.6 0.1 18 -999
2010-08-05 02:59:16 51°13.659 2°55.964 127.6 -999 21 -999
2010-08-05 02:59:21 51°13.659 2°55.964 127.6 0.1 22 -999
2010-08-05 02:59:26 51°13.659 2°55.964 127.6 0.1 24 -999
2010-08-05 02:59:31 51°13.66 2°55.964 127.5 0.1 35 -999
2010-08-05 02:59:36 51°13.66 2°55.964 127.5 0.1 28 -999
2010-08-05 02:59:41 51°13.66 2°55.964 127.5 0.1 27 -999
2010-08-05 02:59:46 51°13.661 2°55.964 127.5 0.1 18 -999
2010-08-05 02:59:51 51°13.661 2°55.964 127.6 0.1 20 -999
2010-08-05 02:59:56 51°13.661 2°55.964 127.6 0.1 26 -999
2010-08-05 03:00:01 51°13.661 2°55.964 127.6 0.1 31 -999
2010-08-05 03:00:06 51°13.661 2°55.964 127.6 0.1 33 -999
2010-08-05 03:00:11 51°13.662 2°55.965 127.6 0.1 31 -999
2010-08-05 03:00:16 51°13.662 2°55.965 127.5 0.1 20 -999
2010-08-05 03:00:21 51°13.662 2°55.966 127.5 0.1 22 -999
2010-08-05 03:00:26 51°13.665 2°55.969 127.5 -999 190 -999
2010-08-05 03:00:31 51°13.663 2°55.968 127.5 -999 7 -999
2010-08-05 03:00:36 51°13.662 2°55.967 127.5 0.1 2 -999
2010-08-05 03:00:41 51°13.662 2°55.967 127.5 0.1 9 -999
2010-08-05 03:00:46 51°13.662 2°55.967 127.5 0.1 12 -999
2010-08-05 03:00:51 51°13.662 2°55.967 127.5 0.1 14 -999
2010-08-05 03:00:56 51°13.662 2°55.967 127.5 0.1 19 -999
2010-08-05 03:01:01 51°13.662 2°55.967 127.5 0.1 24 -999
2010-08-05 03:01:06 51°13.662 2°55.967 127.5 0.1 18 -999
2010-08-05 03:01:11 51°13.662 2°55.967 127.5 0.1 19 -999
2010-08-05 03:01:16 51°13.662 2°55.967 127.5 0.1 18 -999
2010-08-05 03:01:21 51°13.663 2°55.967 127.4 0.1 17 -999
2010-08-05 03:01:26 51°13.663 2°55.967 127.4 0.1 16 -999
2010-08-05 03:01:31 51°13.663 2°55.968 127.4 0.1 21 -999
2010-08-05 03:01:36 51°13.664 2°55.968 127.4 0.1 19 -999
2010-08-05 03:01:41 51°13.664 2°55.968 127.4 0.1 25 -999
2010-08-05 03:01:46 51°13.664 2°55.968 127.4 0.1 29 -999
2010-08-05 03:01:51 51°13.664 2°55.968 127.4 0.1 32 -999
2010-08-05 03:01:56 51°13.665 2°55.968 127.3 0.1 31 -999
2010-08-05 03:02:01 51°13.665 2°55.968 127.3 0.1 32 -999
2010-08-05 03:02:06 51°13.665 2°55.969 127.3 0.1 33 -999
2010-08-05 03:02:11 51°13.665 2°55.969 127.3 0.1 29 -999
2010-08-05 03:02:16 51°13.665 2°55.969 127.3 0.1 30 -999
2010-08-05 03:02:21 51°13.666 2°55.969 127.3 0.1 33 -999
2010-08-05 03:02:26 51°13.666 2°55.97 127.3 0.1 31 -999
2010-08-05 03:02:31 51°13.666 2°55.97 127.3 0.1 36 -999
2010-08-05 03:02:36 51°13.666 2°55.97 127.3 0.1 33 -999
2010-08-05 03:02:41 51°13.666 2°55.97 127.2 0.1 35 -999
2010-08-05 03:02:46 51°13.667 2°55.97 127.2 0.1 31 -999
2010-08-05 03:02:51 51°13.667 2°55.971 127.2 0.1 31 -999
2010-08-05 03:02:56 51°13.667 2°55.971 127.2 0.1 35 -999
2010-08-05 03:03:01 51°13.667 2°55.971 127.2 0.1 41 -999
2010-08-05 03:03:06 51°13.667 2°55.971 127.2 0.1 34 -999
2010-08-05 03:03:10 51°13.667 2°55.971 127.2 0.1 33 -999
2010-08-05 03:03:16 51°13.667 2°55.971 127.2 0.1 31 -999
2010-08-05 03:03:21 51°13.668 2°55.971 127.1 0.1 31 -999
2010-08-05 03:03:26 51°13.668 2°55.972 127.1 0.1 36 -999
2010-08-05 03:03:31 51°13.668 2°55.973 127.1 0.1 30 -999
2010-08-05 03:03:36 51°13.668 2°55.973 127.1 0.1 19 -999
2010-08-05 03:03:41 51°13.668 2°55.973 127.1 0.1 22 -999
2010-08-05 03:03:46 51°13.668 2°55.973 127.1 0.1 23 -999
2010-08-05 03:03:50 51°13.668 2°55.973 127.1 0.1 20 -999
2010-08-05 03:03:56 51°13.668 2°55.973 127.1 0.1 23 -999
2010-08-05 03:04:01 51°13.668 2°55.973 127.1 0.1 21 -999
2010-08-05 03:04:06 51°13.668 2°55.973 127.1 0.1 22 -999
2010-08-05 03:04:11 51°13.668 2°55.973 127.1 0.1 23 -999
2010-08-05 03:04:16 51°13.669 2°55.973 127.1 0.1 27 -999
2010-08-05 03:04:21 51°13.669 2°55.973 127.1 0.1 29 -999
2010-08-05 03:04:26 51°13.669 2°55.973 127.1 0.1 29 -999
2010-08-05 03:04:31 51°13.669 2°55.973 127.1 0.1 28 -999
2010-08-05 03:04:36 51°13.669 2°55.972 127.1 0.1 31 -999
2010-08-05 03:04:41 51°13.669 2°55.972 127.1 0.1 34 -999
2010-08-05 03:04:46 51°13.67 2°55.972 127.1 0.1 36 -999
2010-08-05 03:04:51 51°13.67 2°55.972 127.1 0.1 34 -999
2010-08-05 03:04:56 51°13.67 2°55.972 127.1 0.1 34 -999
2010-08-05 03:05:01 51°13.67 2°55.972 127.1 0.1 35 -999
2010-08-05 03:05:06 51°13.671 2°55.972 127.1 0.1 34 -999
2010-08-05 03:05:10 51°13.671 2°55.972 127.1 0.1 33 -999
2010-08-05 03:05:16 51°13.671 2°55.972 127.1 0.1 36 -999
2010-08-05 03:05:21 51°13.672 2°55.972 127.2 0.1 36 -999
2010-08-05 03:05:26 51°13.672 2°55.972 127.2 0.1 36 -999
2010-08-05 03:05:31 51°13.672 2°55.972 127.2 0.1 34 -999
2010-08-05 03:05:36 51°13.673 2°55.972 127.2 0.2 36 -999
2010-08-05 03:05:41 51°13.672 2°55.971 127.2 0.1 38 -999
2010-08-05 03:05:46 51°13.665 2°55.969 127.2 0.2 37 -999
2010-08-05 03:05:51 51°13.662 2°55.968 127.2 0.2 34 -999
2010-08-05 03:05:56 51°13.661 2°55.967 127.2 0.2 33 -999
2010-08-05 03:06:01 51°13.661 2°55.967 127.3 0.1 32 -999
2010-08-05 03:06:06 51°13.662 2°55.967 127.3 0.2 32 -999
2010-08-05 03:06:11 51°13.662 2°55.968 127.3 0.1 32 -999
2010-08-05 03:06:16 51°13.663 2°55.968 127.3 0.2 35 -999
2010-08-05 03:06:21 51°13.664 2°55.968 127.3 0.2 34 -999
2010-08-05 03:06:26 51°13.664 2°55.968 127.3 0.2 35 -999
2010-08-05 03:06:31 51°13.666 2°55.969 127.3 0.2 33 -999
2010-08-05 03:06:36 51°13.668 2°55.97 127.3 0.2 36 -999
2010-08-05 03:06:41 51°13.67 2°55.971 127.3 0.2 37 -999
2010-08-05 03:06:46 51°13.671 2°55.972 127.3 0.2 37 -999
2010-08-05 03:06:50 51°13.673 2°55.972 127.3 0.2 38 -999
2010-08-05 03:06:56 51°13.674 2°55.973 127.3 0.2 40 -999
2010-08-05 03:07:01 51°13.675 2°55.974 127.3 0.2 41 -999
2010-08-05 03:07:06 51°13.676 2°55.975 127.3 0.2 38 -999
2010-08-05 03:07:11 51°13.677 2°55.975 127.3 0.2 37 -999
2010-08-05 03:07:16 51°13.678 2°55.976 127.3 0.2 41 -999
2010-08-05 03:07:21 51°13.679 2°55.976 127.3 0.2 39 -999
2010-08-05 03:07:26 51°13.679 2°55.977 127.3 0.2 39 -999
2010-08-05 03:07:31 51°13.68 2°55.977 127.3 0.2 37 -999
2010-08-05 03:07:36 51°13.68 2°55.978 127.3 0.2 37 -999
2010-08-05 03:07:41 51°13.681 2°55.978 127.4 0.2 40 -999
2010-08-05 03:07:45 51°13.681 2°55.978 127.4 0.2 40 -999
2010-08-05 03:07:51 51°13.681 2°55.979 127.4 0.2 39 -999
2010-08-05 03:07:56 51°13.681 2°55.979 127.4 0.2 40 -999
2010-08-05 03:08:01 51°13.682 2°55.979 127.5 0.2 42 -999
2010-08-05 03:08:06 51°13.682 2°55.98 127.5 0.2 39 -999
2010-08-05 03:08:10 51°13.682 2°55.98 127.5 0.2 37 -999
2010-08-05 03:08:16 51°13.683 2°55.98 127.5 0.2 39 -999
2010-08-05 03:08:21 51°13.683 2°55.981 127.5 0.2 40 -999
2010-08-05 03:08:26 51°13.684 2°55.981 127.5 0.3 39 -999
2010-08-05 03:08:31 51°13.684 2°55.981 127.5 0.3 39 -999
2010-08-05 03:08:36 51°13.684 2°55.981 127.5 0.3 38 -999
2010-08-05 03:08:41 51°13.685 2°55.982 127.5 0.3 38 -999
2010-08-05 03:08:46 51°13.686 2°55.982 127.5 0.3 40 -999
2010-08-05 03:08:50 51°13.686 2°55.982 127.5 0.3 39 -999
2010-08-05 03:08:52 51°13.686 2°55.982 127.5 0.1 39 -999
2010-08-05 03:08:52 51°13.686 2°55.982 127.5 -999 219 -999
2010-08-05 03:08:52 51°13.686 2°55.982 127.5 -999 42 -999
2010-08-05 03:08:52 51°13.686 2°55.982 127.5 -999 39 -999
2010-08-05 03:08:52 51°13.686 2°55.982 127.5 -999 216 -999
2010-08-05 03:08:52 51°13.686 2°55.982 127.5 -999 39 -999
2010-08-05 03:08:52 51°13.686 2°55.982 127.5 -999 39 -999
2010-08-05 03:08:52 51°13.686 2°55.982 127.5 -999 39 -999
2010-08-05 03:08:52 51°13.686 2°55.982 127.5 -999 219 -999
2010-08-05 03:08:52 51°13.686 2°55.982 127.5 -999 219 -999
2010-08-05 03:08:52 51°13.686 2°55.982 127.5 -999 219 -999
2010-08-05 03:08:52 51°13.686 2°55.982 127.5 -999 220 -999
2010-08-05 03:09:56 51°13.686 2°55.982 127.5 -999 219 -999
2010-08-05 03:10:01 51°13.686 2°55.982 127.4 -999 39 -999
2010-08-05 03:10:05 51°13.686 2°55.982 127.4 -999 39 -999
2010-08-05 03:10:10 51°13.686 2°55.982 127.4 -999 219 -999
2010-08-05 03:10:15 51°13.686 2°55.982 127.4 -999 219 -999
2010-08-05 03:10:20 51°13.686 2°55.982 127.4 -999 39 -999
2010-08-05 03:10:24 51°13.686 2°55.982 127.4 -999 40 -999
2010-08-05 03:10:30 51°13.657 2°55.961 127.4 -999 302 -999
2010-08-05 03:10:36 51°13.66 2°55.963 127.4 -999 184 -999
2010-08-05 03:10:41 51°13.662 2°55.964 127.4 -999 334 -999
2010-08-05 03:10:46 51°13.662 2°55.964 127.4 -999 213 -999
2010-08-05 03:10:50 51°13.662 2°55.964 127.4 -999 227 -999
2010-08-05 03:10:56 51°13.662 2°55.964 127.4 -999 208 -999
2010-08-05 03:11:01 51°13.663 2°55.963 127.4 -999 289 -999
2010-08-05 03:11:06 51°13.663 2°55.963 127.4 -999 356 -999
2010-08-05 03:11:11 51°13.662 2°55.963 127.4 -999 214 -999
2010-08-05 03:11:16 51°13.662 2°55.963 127.4 -999 209 -999
2010-08-05 03:11:21 51°13.662 2°55.963 127.4 -999 220 -999
2010-08-05 03:11:26 51°13.662 2°55.962 127.4 -999 225 -999
2010-08-05 03:11:31 51°13.662 2°55.962 127.4 -999 324 -999
2010-08-05 03:11:36 51°13.662 2°55.962 127.4 -999 188 -999
2010-08-05 03:11:41 51°13.662 2°55.962 127.4 -999 4 -999
2010-08-05 03:11:44 51°13.662 2°55.962 127.4 -999 36 -999
2010-08-05 03:11:51 51°13.662 2°55.961 127.4 -999 228 -999
2010-08-05 03:11:56 51°13.661 2°55.961 127.4 -999 206 -999
2010-08-05 03:12:01 51°13.661 2°55.961 127.4 -999 32 -999
2010-08-05 03:12:06 51°13.661 2°55.961 127.4 -999 250 -999
2010-08-05 03:12:11 51°13.66 2°55.961 127.4 -999 217 -999
2010-08-05 03:12:31 51°13.66 2°55.961 127.4 -999 204 -999
2010-08-05 03:12:36 51°13.66 2°55.961 127.4 -999 202 -999
2010-08-05 03:13:01 51°13.66 2°55.96 127.4 -999 222 -999
2010-08-05 03:13:22 51°13.66 2°55.96 127.5 -999 234 -999
2010-08-05 03:13:52 51°13.66 2°55.96 127.5 -999 221 -999
2010-08-05 03:14:06 51°13.661 2°55.96 127.5 -999 1 -999
2010-08-05 03:14:10 51°13.661 2°55.96 127.5 -999 16 -999
2010-08-05 03:14:16 51°13.661 2°55.96 127.5 -999 208 -999
2010-08-05 03:14:21 51°13.661 2°55.96 127.5 -999 205 -999
2010-08-05 03:14:26 51°13.661 2°55.96 127.5 -999 39 -999
2010-08-05 03:14:30 51°13.661 2°55.96 127.5 -999 8 -999
2010-08-05 03:14:36 51°13.661 2°55.96 127.5 -999 218 -999
2010-08-05 03:14:41 51°13.661 2°55.96 127.5 -999 227 -999
2010-08-05 03:14:46 51°13.661 2°55.96 127.5 -999 9 -999
2010-08-05 03:14:50 51°13.661 2°55.96 127.5 -999 160 -999
2010-08-05 03:14:56 51°13.661 2°55.96 127.5 -999 210 -999
2010-08-05 03:15:00 51°13.661 2°55.96 127.5 -999 313 -999
2010-08-05 03:15:06 51°13.661 2°55.96 127.5 -999 9 -999
2010-08-05 03:15:11 51°13.661 2°55.96 127.5 -999 331 -999
2010-08-05 03:15:16 51°13.661 2°55.96 127.5 -999 269 -999
2010-08-05 03:15:21 51°13.661 2°55.96 127.5 -999 222 -999
2010-08-05 03:15:26 51°13.66 2°55.959 127.5 -999 211 -999
2010-08-05 03:15:31 51°13.66 2°55.959 127.5 -999 175 -999
2010-08-05 03:15:36 51°13.66 2°55.959 127.5 -999 160 -999
2010-08-05 03:15:41 51°13.66 2°55.959 127.5 -999 217 -999
2010-08-05 03:15:46 51°13.66 2°55.959 127.5 -999 261 -999
2010-08-05 03:15:51 51°13.66 2°55.959 127.5 -999 350 -999
2010-08-05 03:15:55 51°13.66 2°55.959 127.5 -999 346 -999
2010-08-05 03:16:01 51°13.66 2°55.96 127.5 -999 196 -999
2010-08-05 03:16:06 51°13.66 2°55.96 127.5 -999 194 -999
2010-08-05 03:16:11 51°13.66 2°55.96 127.5 -999 224 -999
2010-08-05 03:16:16 51°13.661 2°55.96 127.5 -999 244 -999
2010-08-05 03:16:21 51°13.661 2°55.96 127.5 -999 332 -999
2010-08-05 03:16:26 51°13.661 2°55.96 127.6 -999 261 -999
2010-08-05 03:16:30 51°13.661 2°55.96 127.6 -999 188 -999
2010-08-05 03:16:36 51°13.661 2°55.96 127.6 -999 199 -999
2010-08-05 03:16:41 51°13.661 2°55.96 127.6 -999 308 -999
2010-08-05 03:16:46 51°13.661 2°55.96 127.6 -999 43 -999
2010-08-05 03:16:50 51°13.661 2°55.96 127.6 -999 208 -999
2010-08-05 03:16:56 51°13.661 2°55.96 127.6 -999 205 -999
2010-08-05 03:17:01 51°13.661 2°55.96 127.6 -999 169 -999
2010-08-05 03:17:06 51°13.661 2°55.96 127.5 -999 259 -999
2010-08-05 03:17:10 51°13.661 2°55.96 127.5 -999 222 -999
2010-08-05 03:17:16 51°13.661 2°55.96 127.5 -999 220 -999
2010-08-05 03:17:21 51°13.661 2°55.96 127.5 -999 27 -999
2010-08-05 03:17:26 51°13.661 2°55.96 127.6 -999 214 -999
2010-08-05 03:17:31 51°13.661 2°55.96 127.6 -999 203 -999
2010-08-05 03:17:36 51°13.661 2°55.96 127.6 -999 20 -999
2010-08-05 03:17:41 51°13.661 2°55.96 127.6 -999 31 -999
2010-08-05 03:17:46 51°13.661 2°55.96 127.6 -999 218 -999
2010-08-05 03:17:51 51°13.661 2°55.96 127.6 -999 21 -999
2010-08-05 03:17:56 51°13.661 2°55.96 127.5 -999 248 -999
2010-08-05 03:18:01 51°13.661 2°55.96 127.5 -999 216 -999
2010-08-05 03:18:06 51°13.661 2°55.96 127.5 -999 213 -999
2010-08-05 03:18:11 51°13.661 2°55.96 127.5 -999 349 -999
2010-08-05 03:18:16 51°13.661 2°55.96 127.5 -999 212 -999
2010-08-05 03:18:21 51°13.661 2°55.96 127.5 -999 229 -999
2010-08-05 03:18:26 51°13.661 2°55.96 127.6 -999 238 -999
2010-08-05 03:18:31 51°13.661 2°55.96 127.6 -999 212 -999
2010-08-05 03:18:36 51°13.661 2°55.96 127.6 -999 204 -999
2010-08-05 03:18:41 51°13.662 2°55.96 127.6 -999 178 -999
2010-08-05 03:18:46 51°13.662 2°55.96 127.6 -999 253 -999
2010-08-05 03:18:50 51°13.662 2°55.96 127.6 -999 1 -999
2010-08-05 03:18:55 51°13.662 2°55.96 127.6 -999 13 -999
2010-08-05 03:19:01 51°13.662 2°55.961 127.6 -999 209 -999
2010-08-05 03:19:05 51°13.662 2°55.961 127.6 -999 210 -999
2010-08-05 03:19:10 51°13.662 2°55.961 127.6 -999 320 -999
2010-08-05 03:19:15 51°13.662 2°55.961 127.6 -999 221 -999
2010-08-05 03:19:20 51°13.662 2°55.961 127.6 -999 237 -999
2010-08-05 03:19:25 51°13.662 2°55.961 127.6 -999 225 -999
2010-08-05 03:19:30 51°13.662 2°55.961 127.6 -999 228 -999
2010-08-05 03:19:35 51°13.662 2°55.961 127.6 -999 213 -999
2010-08-05 03:19:40 51°13.662 2°55.961 127.6 -999 328 -999
2010-08-05 03:19:45 51°13.662 2°55.961 127.6 -999 224 -999
2010-08-05 03:19:50 51°13.662 2°55.961 127.6 -999 197 -999
2010-08-05 03:19:55 51°13.662 2°55.961 127.6 -999 151 -999
2010-08-05 03:20:00 51°13.662 2°55.961 127.6 -999 202 -999
2010-08-05 03:20:05 51°13.662 2°55.961 127.6 -999 203 -999
2010-08-05 03:20:10 51°13.663 2°55.961 127.6 -999 231 -999
2010-08-05 03:20:15 51°13.663 2°55.961 127.6 -999 221 -999
2010-08-05 03:20:20 51°13.663 2°55.961 127.6 -999 -999 -999
2010-08-05 03:20:25 51°13.663 2°55.961 127.6 -999 31 -999
2010-08-05 03:20:30 51°13.663 2°55.961 127.6 -999 32 -999
2010-08-05 03:20:35 51°13.663 2°55.961 127.6 -999 227 -999
2010-08-05 03:20:40 51°13.663 2°55.961 127.6 -999 29 -999
2010-08-05 03:20:45 51°13.663 2°55.961 127.6 -999 262 -999
2010-08-05 03:20:50 51°13.663 2°55.961 127.6 -999 281 -999
2010-08-05 03:20:55 51°13.663 2°55.961 127.6 -999 -999 -999
2010-08-05 03:21:00 51°13.663 2°55.961 127.6 -999 324 -999
2010-08-05 03:21:05 51°13.663 2°55.961 127.6 -999 235 -999
2010-08-05 03:21:10 51°13.663 2°55.961 127.6 -999 285 -999
2010-08-05 03:21:15 51°13.663 2°55.961 127.6 -999 225 -999
2010-08-05 03:21:20 51°13.662 2°55.961 127.6 -999 218 -999
2010-08-05 03:21:25 51°13.662 2°55.961 127.6 -999 303 -999
2010-08-05 03:21:30 51°13.662 2°55.961 127.6 -999 23 -999
2010-08-05 03:21:35 51°13.662 2°55.961 127.6 -999 211 -999
2010-08-05 03:21:40 51°13.662 2°55.961 127.6 -999 203 -999
2010-08-05 03:21:45 51°13.662 2°55.961 127.6 -999 205 -999
2010-08-05 03:21:50 51°13.662 2°55.961 127.6 -999 255 -999
2010-08-05 03:21:55 51°13.662 2°55.961 127.6 -999 208 -999
2010-08-05 03:22:00 51°13.662 2°55.961 127.6 -999 199 -999
2010-08-05 03:22:05 51°13.662 2°55.961 127.6 -999 68 -999
2010-08-05 03:22:10 51°13.662 2°55.961 127.6 -999 352 -999
2010-08-05 03:22:15 51°13.662 2°55.961 127.6 -999 288 -999
2010-08-05 03:22:20 51°13.661 2°55.961 127.6 -999 226 -999
2010-08-05 03:22:25 51°13.662 2°55.961 127.6 -999 300 -999
2010-08-05 03:22:30 51°13.662 2°55.961 127.6 -999 238 -999
2010-08-05 03:22:35 51°13.662 2°55.961 127.6 -999 222 -999
2010-08-05 03:22:40 51°13.661 2°55.961 127.6 -999 206 -999
2010-08-05 03:22:45 51°13.662 2°55.961 127.6 -999 201 -999
2010-08-05 03:22:50 51°13.662 2°55.961 127.6 -999 139 -999
2010-08-05 03:22:55 51°13.662 2°55.961 127.6 -999 196 -999
2010-08-05 03:23:00 51°13.662 2°55.962 127.5 -999 206 -999
2010-08-05 03:23:05 51°13.662 2°55.962 127.5 -999 324 -999
2010-08-05 03:23:10 51°13.662 2°55.962 127.5 -999 233 -999
2010-08-05 03:23:15 51°13.662 2°55.962 127.5 -999 305 -999
2010-08-05 03:23:20 51°13.662 2°55.962 127.6 -999 217 -999
2010-08-05 03:23:25 51°13.662 2°55.962 127.6 0.1 201 -999
2010-08-05 03:23:30 51°13.662 2°55.962 127.6 -999 210 -999
2010-08-05 03:23:35 51°13.662 2°55.962 127.7 -999 197 -999
2010-08-05 03:23:40 51°13.662 2°55.962 127.7 -999 307 -999
2010-08-05 03:23:45 51°13.662 2°55.962 127.7 -999 181 -999
2010-08-05 03:23:50 51°13.662 2°55.962 127.7 -999 206 -999
2010-08-05 03:23:55 51°13.662 2°55.962 127.7 -999 204 -999
2010-08-05 03:24:00 51°13.662 2°55.962 127.6 -999 239 -999
2010-08-05 03:24:05 51°13.662 2°55.962 127.6 -999 225 -999
2010-08-05 03:24:10 51°13.662 2°55.962 127.7 -999 208 -999
2010-08-05 03:24:15 51°13.662 2°55.962 127.7 -999 304 -999
2010-08-05 03:24:20 51°13.662 2°55.962 127.7 -999 16 -999
2010-08-05 03:24:25 51°13.662 2°55.962 127.7 -999 248 -999
2010-08-05 03:24:30 51°13.662 2°55.962 127.7 -999 241 -999
2010-08-05 03:24:35 51°13.662 2°55.962 127.7 -999 234 -999
2010-08-05 03:24:40 51°13.662 2°55.962 127.7 -999 219 -999
2010-08-05 03:24:45 51°13.662 2°55.962 127.7 -999 214 -999
2010-08-05 03:24:50 51°13.662 2°55.962 127.7 -999 41 -999
2010-08-05 03:24:55 51°13.662 2°55.962 127.7 -999 5 -999
2010-08-05 03:25:00 51°13.662 2°55.962 127.8 -999 212 -999
2010-08-05 03:25:05 51°13.662 2°55.962 127.8 -999 188 -999
2010-08-05 03:25:10 51°13.662 2°55.962 127.8 0.1 216 -999
2010-08-05 03:25:15 51°13.662 2°55.962 127.8 -999 217 -999
2010-08-05 03:25:20 51°13.662 2°55.962 127.8 -999 319 -999
2010-08-05 03:25:25 51°13.662 2°55.962 127.8 -999 1 -999
2010-08-05 03:25:30 51°13.662 2°55.961 127.8 -999 248 -999
2010-08-05 03:25:35 51°13.662 2°55.961 127.7 -999 236 -999
2010-08-05 03:25:40 51°13.662 2°55.961 127.7 -999 43 -999
2010-08-05 03:25:45 51°13.662 2°55.961 127.7 -999 -999 -999
2010-08-05 03:25:50 51°13.662 2°55.961 127.7 -999 233 -999
2010-08-05 03:25:55 51°13.662 2°55.961 127.7 -999 248 -999
2010-08-05 03:26:00 51°13.662 2°55.961 127.7 -999 208 -999
2010-08-05 03:26:05 51°13.662 2°55.961 127.7 -999 216 -999
2010-08-05 03:26:10 51°13.662 2°55.961 127.8 -999 225 -999
2010-08-05 03:26:15 51°13.662 2°55.961 127.8 -999 220 -999
2010-08-05 03:26:20 51°13.662 2°55.961 127.7 -999 239 -999
2010-08-05 03:26:25 51°13.662 2°55.961 127.7 -999 233 -999
2010-08-05 03:26:30 51°13.662 2°55.961 127.7 -999 254 -999
2010-08-05 03:26:35 51°13.662 2°55.961 127.7 -999 216 -999
2010-08-05 03:26:40 51°13.662 2°55.961 127.7 -999 187 -999
2010-08-05 03:26:45 51°13.662 2°55.961 127.7 -999 224 -999
2010-08-05 03:26:50 51°13.662 2°55.961 127.7 -999 349 -999
2010-08-05 03:26:55 51°13.662 2°55.961 127.7 -999 352 -999
2010-08-05 03:27:00 51°13.662 2°55.961 127.7 -999 86 -999
2010-08-05 03:27:05 51°13.662 2°55.961 127.7 -999 175 -999
2010-08-05 03:27:10 51°13.662 2°55.961 127.7 -999 96 -999
2010-08-05 03:27:15 51°13.662 2°55.961 127.7 -999 237 -999
2010-08-05 03:27:20 51°13.662 2°55.961 127.7 -999 224 -999
2010-08-05 03:27:25 51°13.662 2°55.961 127.7 -999 67 -999
2010-08-05 03:27:30 51°13.662 2°55.961 127.7 -999 209 -999
2010-08-05 03:27:35 51°13.662 2°55.961 127.7 -999 248 -999
2010-08-05 03:27:40 51°13.662 2°55.961 127.7 -999 254 -999
2010-08-05 03:27:45 51°13.662 2°55.961 127.7 -999 202 -999
2010-08-05 03:27:50 51°13.662 2°55.961 127.7 -999 197 -999
2010-08-05 03:27:55 51°13.662 2°55.961 127.6 -999 15 -999
2010-08-05 03:28:00 51°13.662 2°55.961 127.5 -999 248 -999
2010-08-05 03:28:05 51°13.662 2°55.961 127.4 -999 292 -999
2010-08-05 03:28:10 51°13.662 2°55.961 127.4 -999 355 -999
2010-08-05 03:28:15 51°13.662 2°55.961 127.4 -999 274 -999
2010-08-05 03:28:20 51°13.662 2°55.961 127.4 -999 228 -999
2010-08-05 03:28:25 51°13.662 2°55.961 127.4 -999 269 -999
2010-08-05 03:28:30 51°13.662 2°55.961 127.4 -999 292 -999
2010-08-05 03:28:35 51°13.662 2°55.961 127.3 -999 320 -999
2010-08-05 03:28:40 51°13.662 2°55.961 127.1 -999 285 -999
2010-08-05 03:28:45 51°13.662 2°55.961 126.9 -999 294 -999
2010-08-05 03:28:50 51°13.662 2°55.961 126.5 -999 285 -999
2010-08-05 03:28:55 51°13.662 2°55.961 126.3 -999 13 -999
2010-08-05 03:29:00 51°13.662 2°55.961 126.3 -999 112 -999
2010-08-05 03:29:05 51°13.662 2°55.961 126.2 0.1 177 -999
2010-08-05 03:29:10 51°13.662 2°55.961 126.2 0.1 160 -999
2010-08-05 03:29:15 51°13.662 2°55.961 126.3 0.1 86 -999
2010-08-05 03:29:20 51°13.662 2°55.961 126.7 -999 222 -999
2010-08-05 03:29:25 51°13.662 2°55.961 127.1 -999 261 -999
2010-08-05 03:29:30 51°13.662 2°55.961 127.3 -999 255 -999
2010-08-05 03:29:35 51°13.662 2°55.961 127.3 -999 318 -999
2010-08-05 03:29:40 51°13.662 2°55.961 127.2 -999 331 -999
2010-08-05 03:29:45 51°13.662 2°55.961 126.9 0.1 334 -999
2010-08-05 03:29:50 51°13.662 2°55.961 126.7 -999 314 -999
2010-08-05 03:29:55 51°13.662 2°55.96 126.4 0.1 358 -999
2010-08-05 03:30:00 51°13.662 2°55.96 126.2 -999 213 -999
2010-08-05 03:30:05 51°13.662 2°55.96 126 -999 189 -999
2010-08-05 03:30:10 51°13.662 2°55.96 126 0.1 205 -999
2010-08-05 03:30:15 51°13.662 2°55.96 126 -999 182 -999
2010-08-05 03:30:20 51°13.662 2°55.96 126 -999 176 -999
2010-08-05 03:30:25 51°13.662 2°55.96 126.3 0.1 173 -999
2010-08-05 03:30:30 51°13.662 2°55.96 126.5 0.1 179 -999
2010-08-05 03:30:35 51°13.662 2°55.96 127 -999 170 -999
2010-08-05 03:30:40 51°13.662 2°55.96 127.2 -999 161 -999
2010-08-05 03:30:45 51°13.662 2°55.96 127.3 0.1 39 -999
2010-08-05 03:30:50 51°13.662 2°55.96 127.4 -999 21 -999
2010-08-05 03:30:55 51°13.662 2°55.961 127.4 0.1 31 -999
2010-08-05 03:31:00 51°13.662 2°55.961 127.5 -999 55 -999
2010-08-05 03:31:05 51°13.662 2°55.961 127.5 0.1 32 -999
2010-08-05 03:31:10 51°13.662 2°55.961 127.6 -999 21 -999
2010-08-05 03:31:15 51°13.662 2°55.961 127.6 -999 56 -999
2010-08-05 03:31:20 51°13.662 2°55.961 127.6 -999 295 -999
2010-08-05 03:31:25 51°13.662 2°55.961 127.6 -999 268 -999
2010-08-05 03:31:30 51°13.662 2°55.961 127.4 -999 236 -999
2010-08-05 03:31:35 51°13.662 2°55.961 127.2 0.1 214 -999
2010-08-05 03:31:40 51°13.662 2°55.961 127.1 -999 292 -999
2010-08-05 03:31:45 51°13.662 2°55.96 127 -999 248 -999
2010-08-05 03:31:50 51°13.662 2°55.961 126.8 -999 357 -999
2010-08-05 03:31:55 51°13.662 2°55.96 126.5 -999 311 -999
2010-08-05 03:32:00 51°13.662 2°55.96 126.4 -999 333 -999
2010-08-05 03:32:05 51°13.662 2°55.96 126.3 -999 264 -999
2010-08-05 03:32:10 51°13.662 2°55.96 126.2 0.1 217 -999
2010-08-05 03:32:15 51°13.662 2°55.96 126.2 -999 145 -999
2010-08-05 03:32:20 51°13.662 2°55.96 126.2 -999 160 -999
2010-08-05 03:32:25 51°13.662 2°55.96 126.3 -999 47 -999
2010-08-05 03:32:30 51°13.662 2°55.96 126.4 -999 349 -999
2010-08-05 03:32:35 51°13.662 2°55.96 126.4 0.1 49 -999
2010-08-05 03:32:40 51°13.662 2°55.96 126.6 0.1 56 -999
2010-08-05 03:32:45 51°13.661 2°55.96 126.8 -999 192 -999
2010-08-05 03:32:50 51°13.661 2°55.96 126.9 0.1 197 -999
2010-08-05 03:32:55 51°13.661 2°55.96 127 -999 194 -999
2010-08-05 03:33:00 51°13.661 2°55.96 127 -999 235 -999
2010-08-05 03:33:05 51°13.661 2°55.96 126.9 -999 315 -999
2010-08-05 03:33:10 51°13.661 2°55.96 126.7 -999 252 -999
2010-08-05 03:33:15 51°13.661 2°55.96 126.7 -999 259 -999
2010-08-05 03:33:20 51°13.661 2°55.96 126.5 -999 220 -999
2010-08-05 03:33:25 51°13.661 2°55.96 126.5 -999 169 -999
2010-08-05 03:33:30 51°13.661 2°55.96 126.5 -999 336 -999
2010-08-05 03:33:35 51°13.661 2°55.96 126.5 -999 262 -999
2010-08-05 03:33:40 51°13.661 2°55.96 126.4 -999 163 -999
2010-08-05 03:33:45 51°13.661 2°55.96 126.4 -999 63 -999
2010-08-05 03:33:50 51°13.661 2°55.96 126.6 -999 185 -999
2010-08-05 03:33:55 51°13.661 2°55.96 126.8 -999 132 -999
2010-08-05 03:34:00 51°13.661 2°55.96 127.1 -999 147 -999
2010-08-05 03:34:05 51°13.661 2°55.96 127.3 -999 131 -999
2010-08-05 03:34:10 51°13.661 2°55.96 127.5 -999 214 -999
2010-08-05 03:34:15 51°13.661 2°55.96 127.5 -999 197 -999
2010-08-05 03:34:20 51°13.661 2°55.96 127.5 -999 212 -999
2010-08-05 03:34:25 51°13.661 2°55.96 127.5 -999 345 -999
2010-08-05 03:34:30 51°13.661 2°55.96 127.5 0.1 26 -999
2010-08-05 03:34:35 51°13.661 2°55.96 127.5 -999 215 -999
2010-08-05 03:34:40 51°13.661 2°55.96 127.5 -999 253 -999
2010-08-05 03:34:45 51°13.661 2°55.96 127.5 -999 217 -999
2010-08-05 03:34:50 51°13.662 2°55.96 127.4 -999 70 -999
2010-08-05 03:34:55 51°13.662 2°55.96 127.4 -999 278 -999
2010-08-05 03:35:00 51°13.661 2°55.96 127.3 -999 264 -999
2010-08-05 03:35:05 51°13.662 2°55.96 127.2 -999 88 -999
2010-08-05 03:35:10 51°13.662 2°55.96 127.2 0.1 34 -999
2010-08-05 03:35:15 51°13.662 2°55.96 127.2 -999 29 -999
2010-08-05 03:35:20 51°13.662 2°55.96 127.2 -999 41 -999
2010-08-05 03:35:25 51°13.662 2°55.96 127.2 -999 139 -999
2010-08-05 03:35:30 51°13.662 2°55.96 127.3 -999 131 -999
2010-08-05 03:35:35 51°13.662 2°55.96 127.5 -999 196 -999
2010-08-05 03:35:40 51°13.662 2°55.96 127.7 -999 36 -999
2010-08-05 03:35:45 51°13.661 2°55.96 127.7 -999 201 -999
2010-08-05 03:35:50 51°13.662 2°55.96 127.7 -999 316 -999
2010-08-05 03:35:55 51°13.662 2°55.96 127.7 -999 178 -999
2010-08-05 03:36:00 51°13.662 2°55.96 127.7 -999 13 -999
2010-08-05 03:36:05 51°13.662 2°55.96 127.7 -999 131 -999
2010-08-05 03:36:10 51°13.662 2°55.96 127.7 -999 33 -999
2010-08-05 03:36:15 51°13.661 2°55.96 127.8 -999 36 -999
2010-08-05 03:36:20 51°13.661 2°55.96 127.8 -999 19 -999
2010-08-05 03:36:25 51°13.661 2°55.96 127.8 -999 211 -999
2010-08-05 03:36:30 51°13.661 2°55.96 127.8 -999 232 -999
2010-08-05 03:36:35 51°13.661 2°55.96 127.8 -999 42 -999
2010-08-05 03:36:40 51°13.661 2°55.96 127.8 -999 258 -999
2010-08-05 03:36:45 51°13.661 2°55.96 127.8 -999 86 -999
2010-08-05 03:36:50 51°13.661 2°55.96 127.9 -999 166 -999
2010-08-05 03:36:56 51°13.662 2°55.96 127.9 -999 43 -999
2010-08-05 03:37:00 51°13.662 2°55.96 128 -999 243 -999
2010-08-05 03:37:05 51°13.662 2°55.96 128 -999 332 -999
2010-08-05 03:37:10 51°13.662 2°55.96 128 -999 212 -999
2010-08-05 03:37:15 51°13.662 2°55.96 128 -999 34 -999
2010-08-05 03:37:20 51°13.662 2°55.96 128 -999 212 -999
2010-08-05 03:37:25 51°13.662 2°55.96 128 -999 200 -999
2010-08-05 03:37:30 51°13.662 2°55.96 128 -999 48 -999
2010-08-05 03:37:35 51°13.662 2°55.96 128 -999 176 -999
2010-08-05 03:37:40 51°13.662 2°55.96 127.8 -999 66 -999
2010-08-05 03:37:45 51°13.662 2°55.96 127.8 -999 224 -999
2010-08-05 03:37:51 51°13.662 2°55.96 127.8 -999 6 -999
2010-08-05 03:37:55 51°13.662 2°55.96 127.8 -999 207 -999
2010-08-05 03:38:00 51°13.662 2°55.96 127.8 -999 135 -999
2010-08-05 03:38:05 51°13.662 2°55.96 127.8 -999 30 -999
2010-08-05 03:38:11 51°13.662 2°55.96 127.9 -999 237 -999
2010-08-05 03:38:15 51°13.662 2°55.96 128 -999 47 -999
2010-08-05 03:38:20 51°13.662 2°55.96 128.1 0.1 208 -999
2010-08-05 03:38:25 51°13.662 2°55.96 128.1 -999 191 -999
2010-08-05 03:38:30 51°13.662 2°55.96 128.1 -999 39 -999
2010-08-05 03:38:35 51°13.662 2°55.96 127.8 -999 225 -999
2010-08-05 03:38:40 51°13.662 2°55.961 127.4 -999 187 -999
2010-08-05 03:38:45 51°13.662 2°55.961 127.1 -999 226 -999
2010-08-05 03:38:50 51°13.662 2°55.961 126.8 -999 305 -999
2010-08-05 03:38:55 51°13.662 2°55.96 126.4 0.1 277 -999
2010-08-05 03:39:00 51°13.662 2°55.96 126.3 0.1 275 -999
2010-08-05 03:39:05 51°13.662 2°55.96 126.1 -999 4 -999
2010-08-05 03:39:10 51°13.662 2°55.96 126 -999 257 -999
2010-08-05 03:39:15 51°13.662 2°55.96 126 0.1 44 -999
2010-08-05 03:39:20 51°13.662 2°55.96 126.1 -999 40 -999
2010-08-05 03:39:25 51°13.662 2°55.96 126.4 -999 242 -999
2010-08-05 03:39:30 51°13.662 2°55.96 126.7 -999 344 -999
2010-08-05 03:39:35 51°13.662 2°55.96 127.1 -999 331 -999
2010-08-05 03:39:40 51°13.662 2°55.96 127.3 -999 326 -999
2010-08-05 03:39:46 51°13.662 2°55.96 127.4 -999 268 -999
2010-08-05 03:39:50 51°13.662 2°55.96 127.4 -999 218 -999
2010-08-05 03:39:56 51°13.662 2°55.96 127.4 -999 246 -999
2010-08-05 03:40:00 51°13.662 2°55.96 127.3 -999 308 -999
2010-08-05 03:40:05 51°13.662 2°55.961 127.2 -999 204 -999
2010-08-05 03:40:10 51°13.662 2°55.961 127.2 -999 334 -999
2010-08-05 03:40:15 51°13.662 2°55.961 127.2 -999 227 -999
2010-08-05 03:40:20 51°13.662 2°55.961 127.2 -999 114 -999
2010-08-05 03:40:25 51°13.662 2°55.961 127.4 -999 155 -999
2010-08-05 03:40:30 51°13.662 2°55.961 127.7 -999 170 -999
2010-08-05 03:40:35 51°13.662 2°55.961 127.8 -999 177 -999
2010-08-05 03:40:40 51°13.662 2°55.961 127.9 -999 170 -999
2010-08-05 03:40:45 51°13.662 2°55.961 128 -999 46 -999
2010-08-05 03:40:51 51°13.662 2°55.961 128 -999 315 -999
2010-08-05 03:40:55 51°13.662 2°55.961 128 -999 227 -999
2010-08-05 03:41:00 51°13.662 2°55.961 127.9 0.1 13 -999
2010-08-05 03:41:05 51°13.662 2°55.961 127.9 -999 17 -999
2010-08-05 03:41:10 51°13.662 2°55.961 127.9 -999 236 -999
2010-08-05 03:41:15 51°13.662 2°55.961 127.8 -999 194 -999
2010-08-05 03:41:20 51°13.663 2°55.961 127.8 -999 49 -999
2010-08-05 03:41:25 51°13.662 2°55.961 127.8 -999 49 -999
2010-08-05 03:41:30 51°13.662 2°55.961 127.8 -999 189 -999
2010-08-05 03:41:35 51°13.662 2°55.961 127.8 -999 178 -999
2010-08-05 03:41:40 51°13.662 2°55.961 127.8 -999 109 -999
2010-08-05 03:41:45 51°13.662 2°55.961 127.8 -999 202 -999
2010-08-05 03:41:50 51°13.662 2°55.961 127.8 -999 319 -999
2010-08-05 03:41:55 51°13.662 2°55.961 127.6 -999 309 -999
2010-08-05 03:42:00 51°13.662 2°55.961 127.5 -999 329 -999
2010-08-05 03:42:06 51°13.662 2°55.961 127.2 -999 339 -999
2010-08-05 03:42:10 51°13.662 2°55.961 127.1 -999 340 -999
2010-08-05 03:42:15 51°13.662 2°55.961 127 0.1 5 -999
2010-08-05 03:42:20 51°13.662 2°55.961 126.9 -999 355 -999
2010-08-05 03:42:25 51°13.662 2°55.961 126.9 -999 2 -999
2010-08-05 03:42:30 51°13.662 2°55.961 126.9 -999 344 -999
2010-08-05 03:42:35 51°13.662 2°55.961 126.8 0.1 9 -999
2010-08-05 03:42:40 51°13.662 2°55.961 126.9 -999 29 -999
2010-08-05 03:42:45 51°13.662 2°55.961 126.9 0.1 227 -999
2010-08-05 03:42:50 51°13.662 2°55.961 126.9 -999 225 -999
2010-08-05 03:42:55 51°13.662 2°55.961 126.8 -999 212 -999
2010-08-05 03:43:00 51°13.662 2°55.961 126.8 -999 48 -999
2010-08-05 03:43:05 51°13.662 2°55.961 126.8 -999 243 -999
2010-08-05 03:43:11 51°13.662 2°55.961 126.8 0.1 216 -999
2010-08-05 03:43:15 51°13.662 2°55.961 126.8 -999 214 -999
2010-08-05 03:43:20 51°13.662 2°55.961 126.8 -999 218 -999
2010-08-05 03:43:25 51°13.662 2°55.961 126.8 -999 278 -999
2010-08-05 03:43:31 51°13.663 2°55.961 126.8 -999 20 -999
2010-08-05 03:43:35 51°13.663 2°55.961 126.8 -999 9 -999
2010-08-05 03:43:40 51°13.663 2°55.961 126.8 -999 320 -999
2010-08-05 03:43:45 51°13.663 2°55.961 126.6 -999 265 -999
2010-08-05 03:43:50 51°13.663 2°55.961 126.4 -999 294 -999
2010-08-05 03:43:55 51°13.663 2°55.961 126.3 -999 225 -999
2010-08-05 03:44:00 51°13.663 2°55.961 126.2 -999 18 -999
2010-08-05 03:44:05 51°13.663 2°55.961 126.1 -999 266 -999
2010-08-05 03:44:10 51°13.663 2°55.961 126.1 -999 247 -999
2010-08-05 03:44:15 51°13.663 2°55.961 126.1 0.1 220 -999
2010-08-05 03:44:21 51°13.663 2°55.961 126.1 -999 202 -999
2010-08-05 03:44:25 51°13.663 2°55.961 126.1 -999 44 -999
2010-08-05 03:44:30 51°13.663 2°55.961 126.2 -999 36 -999
2010-08-05 03:44:35 51°13.663 2°55.961 126.3 -999 291 -999
2010-08-05 03:44:41 51°13.663 2°55.961 126.3 -999 334 -999
2010-08-05 03:44:46 51°13.663 2°55.96 126.4 -999 203 -999
2010-08-05 03:44:50 51°13.663 2°55.96 126.4 -999 211 -999
2010-08-05 03:44:55 51°13.663 2°55.96 126.4 -999 359 -999
2010-08-05 03:45:00 51°13.663 2°55.96 126.3 -999 7 -999
2010-08-05 03:45:05 51°13.663 2°55.96 126.2 -999 222 -999
2010-08-05 03:45:10 51°13.663 2°55.96 126.1 -999 244 -999
2010-08-05 03:45:15 51°13.663 2°55.96 126.1 -999 198 -999
2010-08-05 03:45:20 51°13.663 2°55.96 126 -999 83 -999
2010-08-05 03:45:25 51°13.663 2°55.96 125.8 -999 254 -999
2010-08-05 03:45:30 51°13.663 2°55.96 125.7 -999 244 -999
2010-08-05 03:45:35 51°13.663 2°55.96 125.6 -999 255 -999
2010-08-05 03:45:40 51°13.663 2°55.96 125.5 -999 201 -999
2010-08-05 03:45:45 51°13.663 2°55.96 125.3 0.1 359 -999
2010-08-05 03:45:51 51°13.663 2°55.96 125.1 -999 291 -999
2010-08-05 03:45:55 51°13.663 2°55.96 125 -999 232 -999
2010-08-05 03:46:00 51°13.663 2°55.96 125 -999 215 -999
2010-08-05 03:46:05 51°13.663 2°55.96 124.9 -999 227 -999
2010-08-05 03:46:11 51°13.663 2°55.96 124.9 -999 359 -999
2010-08-05 03:46:15 51°13.663 2°55.96 125 -999 110 -999
2010-08-05 03:46:20 51°13.663 2°55.96 125.2 -999 188 -999
2010-08-05 03:46:25 51°13.663 2°55.96 125.3 0.1 193 -999
2010-08-05 03:46:30 51°13.663 2°55.96 125.5 -999 193 -999
2010-08-05 03:46:35 51°13.663 2°55.96 125.5 -999 46 -999
2010-08-05 03:46:40 51°13.663 2°55.96 125.7 -999 21 -999
2010-08-05 03:46:45 51°13.663 2°55.96 125.7 -999 356 -999
2010-08-05 03:46:50 51°13.663 2°55.96 125.7 0.1 203 -999
2010-08-05 03:46:55 51°13.663 2°55.96 125.7 -999 11 -999
2010-08-05 03:47:00 51°13.663 2°55.96 125.5 -999 323 -999
2010-08-05 03:47:05 51°13.663 2°55.96 125.5 0.1 204 -999
2010-08-05 03:47:10 51°13.663 2°55.96 125.4 -999 196 -999
2010-08-05 03:47:15 51°13.663 2°55.96 125.3 -999 20 -999
2010-08-05 03:47:20 51°13.663 2°55.96 125.3 -999 272 -999
2010-08-05 03:47:26 51°13.663 2°55.96 125.4 -999 244 -999
2010-08-05 03:47:30 51°13.663 2°55.96 125.4 -999 335 -999
2010-08-05 03:47:35 51°13.663 2°55.96 125.4 -999 169 -999
2010-08-05 03:47:40 51°13.663 2°55.96 125.5 -999 159 -999
2010-08-05 03:47:45 51°13.663 2°55.96 125.5 -999 207 -999
2010-08-05 03:47:50 51°13.663 2°55.96 125.5 -999 255 -999
2010-08-05 03:47:55 51°13.663 2°55.96 125.5 -999 337 -999
2010-08-05 03:48:00 51°13.663 2°55.96 125.4 -999 227 -999
2010-08-05 03:48:05 51°13.663 2°55.96 125.1 -999 223 -999
2010-08-05 03:48:10 51°13.663 2°55.96 124.9 -999 331 -999
2010-08-05 03:48:16 51°13.663 2°55.96 124.7 0.1 215 -999
2010-08-05 03:48:20 51°13.663 2°55.96 124.4 -999 229 -999
2010-08-05 03:48:25 51°13.663 2°55.96 124.3 -999 300 -999
2010-08-05 03:48:30 51°13.663 2°55.96 124.3 -999 237 -999
2010-08-05 03:48:35 51°13.663 2°55.96 124.3 0.1 191 -999
2010-08-05 03:48:40 51°13.663 2°55.96 124.6 -999 162 -999
2010-08-05 03:48:45 51°13.663 2°55.96 124.8 0.1 174 -999
2010-08-05 03:48:50 51°13.663 2°55.96 125.1 -999 112 -999
2010-08-05 03:48:55 51°13.663 2°55.96 125.3 -999 145 -999
2010-08-05 03:49:00 51°13.663 2°55.96 125.7 -999 159 -999
2010-08-05 03:49:05 51°13.663 2°55.96 125.7 0.1 193 -999
2010-08-05 03:49:10 51°13.663 2°55.96 125.9 -999 157 -999
2010-08-05 03:49:15 51°13.663 2°55.96 126 -999 179 -999
2010-08-05 03:49:20 51°13.663 2°55.96 126.1 -999 209 -999
2010-08-05 03:49:25 51°13.663 2°55.96 126.2 -999 216 -999
2010-08-05 03:49:30 51°13.663 2°55.96 126.3 -999 219 -999
2010-08-05 03:49:35 51°13.662 2°55.96 126.4 0.1 196 -999
2010-08-05 03:49:41 51°13.662 2°55.96 126.4 -999 177 -999
2010-08-05 03:49:46 51°13.662 2°55.96 126.5 -999 21 -999
2010-08-05 03:49:50 51°13.662 2°55.96 126.6 -999 71 -999
2010-08-05 03:49:55 51°13.662 2°55.96 126.6 -999 137 -999
2010-08-05 03:50:00 51°13.662 2°55.96 126.6 -999 129 -999
2010-08-05 03:50:05 51°13.662 2°55.96 126.6 -999 2 -999
2010-08-05 03:50:10 51°13.662 2°55.96 126.6 -999 343 -999
2010-08-05 03:50:15 51°13.662 2°55.96 126.6 -999 359 -999
2010-08-05 03:50:20 51°13.662 2°55.96 126.6 -999 249 -999
2010-08-05 03:50:25 51°13.662 2°55.96 126.6 -999 221 -999
2010-08-05 03:50:30 51°13.662 2°55.96 126.5 -999 150 -999
2010-08-05 03:50:35 51°13.662 2°55.96 126.5 -999 234 -999
2010-08-05 03:50:40 51°13.662 2°55.96 126.5 -999 309 -999
2010-08-05 03:50:45 51°13.662 2°55.96 126.5 -999 315 -999
2010-08-05 03:50:50 51°13.662 2°55.96 126.5 -999 227 -999
2010-08-05 03:50:55 51°13.662 2°55.96 126.5 -999 271 -999
2010-08-05 03:51:00 51°13.662 2°55.96 126.4 -999 340 -999
2010-08-05 03:51:05 51°13.662 2°55.96 126.4 -999 259 -999
2010-08-05 03:51:10 51°13.662 2°55.96 126.4 -999 352 -999
2010-08-05 03:51:15 51°13.662 2°55.96 126.4 -999 6 -999
2010-08-05 03:51:20 51°13.662 2°55.96 126.4 -999 196 -999
2010-08-05 03:51:25 51°13.662 2°55.96 126.4 -999 95 -999
2010-08-05 03:51:30 51°13.662 2°55.96 126.4 -999 200 -999
2010-08-05 03:51:35 51°13.662 2°55.96 126.6 -999 260 -999
2010-08-05 03:51:40 51°13.662 2°55.96 126.6 -999 195 -999
2010-08-05 03:51:45 51°13.662 2°55.96 126.5 -999 181 -999
2010-08-05 03:51:50 51°13.662 2°55.96 126.4 -999 1 -999
2010-08-05 03:51:55 51°13.662 2°55.96 126.2 -999 341 -999
2010-08-05 03:52:00 51°13.662 2°55.96 126 -999 288 -999
2010-08-05 03:52:05 51°13.662 2°55.96 125.7 -999 340 -999
2010-08-05 03:52:10 51°13.662 2°55.96 125.5 -999 320 -999
2010-08-05 03:52:15 51°13.662 2°55.96 125.3 0.1 252 -999
2010-08-05 03:52:21 51°13.662 2°55.96 125 -999 284 -999
2010-08-05 03:52:26 51°13.662 2°55.96 124.7 -999 310 -999
2010-08-05 03:52:30 51°13.662 2°55.96 124.4 -999 306 -999
2010-08-05 03:52:35 51°13.662 2°55.96 124.3 -999 303 -999
2010-08-05 03:52:40 51°13.662 2°55.96 124.3 -999 280 -999
2010-08-05 03:52:45 51°13.662 2°55.96 124.3 -999 182 -999
2010-08-05 03:52:50 51°13.662 2°55.96 124.3 -999 137 -999
2010-08-05 03:52:55 51°13.662 2°55.96 124.6 -999 107 -999
2010-08-05 03:53:00 51°13.662 2°55.96 124.7 -999 199 -999
2010-08-05 03:53:05 51°13.662 2°55.96 124.9 0.1 174 -999
2010-08-05 03:53:10 51°13.662 2°55.96 125 -999 171 -999
2010-08-05 03:53:15 51°13.662 2°55.96 125.1 -999 178 -999
2010-08-05 03:53:20 51°13.662 2°55.96 125.2 -999 182 -999
2010-08-05 03:53:25 51°13.662 2°55.96 125.3 -999 168 -999
2010-08-05 03:53:30 51°13.662 2°55.96 125.4 -999 242 -999
2010-08-05 03:53:35 51°13.662 2°55.96 125.4 -999 284 -999
2010-08-05 03:53:40 51°13.663 2°55.96 125.4 -999 317 -999
2010-08-05 03:53:45 51°13.663 2°55.96 125.4 -999 276 -999
2010-08-05 03:53:50 51°13.663 2°55.96 125.4 -999 177 -999
2010-08-05 03:53:55 51°13.663 2°55.96 125.4 -999 200 -999
2010-08-05 03:54:00 51°13.663 2°55.96 125.4 -999 161 -999
2010-08-05 03:54:05 51°13.663 2°55.96 125.4 -999 187 -999
2010-08-05 03:54:10 51°13.663 2°55.96 125.5 -999 118 -999
2010-08-05 03:54:15 51°13.663 2°55.96 125.7 -999 45 -999
2010-08-05 03:54:20 51°13.663 2°55.96 125.7 -999 133 -999
2010-08-05 03:54:25 51°13.663 2°55.96 125.8 -999 161 -999
2010-08-05 03:54:31 51°13.663 2°55.96 125.8 -999 208 -999
2010-08-05 03:54:35 51°13.663 2°55.96 125.8 -999 80 -999
2010-08-05 03:54:40 51°13.663 2°55.96 125.8 -999 305 -999
2010-08-05 03:54:45 51°13.663 2°55.96 125.8 -999 286 -999
2010-08-05 03:54:50 51°13.663 2°55.96 125.7 -999 355 -999
2010-08-05 03:54:55 51°13.663 2°55.96 125.7 -999 20 -999
2010-08-05 03:55:00 51°13.663 2°55.96 125.7 -999 29 -999
2010-08-05 03:55:05 51°13.663 2°55.96 125.7 -999 206 -999
2010-08-05 03:55:10 51°13.663 2°55.96 125.7 -999 190 -999
2010-08-05 03:55:15 51°13.663 2°55.96 125.7 -999 183 -999
2010-08-05 03:55:20 51°13.663 2°55.96 125.8 -999 159 -999
2010-08-05 03:55:25 51°13.663 2°55.96 126 -999 171 -999
2010-08-05 03:55:30 51°13.663 2°55.96 126.3 -999 134 -999
2010-08-05 03:55:35 51°13.663 2°55.96 126.4 -999 165 -999
2010-08-05 03:55:40 51°13.663 2°55.96 126.5 -999 53 -999
2010-08-05 03:55:45 51°13.663 2°55.96 126.6 -999 242 -999
2010-08-05 03:55:50 51°13.662 2°55.96 126.6 -999 213 -999
2010-08-05 03:55:55 51°13.663 2°55.96 126.6 -999 220 -999
2010-08-05 03:56:00 51°13.663 2°55.96 126.6 -999 354 -999
2010-08-05 03:56:05 51°13.663 2°55.96 126.7 -999 265 -999
2010-08-05 03:56:10 51°13.663 2°55.961 126.7 -999 38 -999
2010-08-05 03:56:15 51°13.663 2°55.961 126.9 -999 82 -999
2010-08-05 03:56:20 51°13.663 2°55.961 127 -999 165 -999
2010-08-05 03:56:25 51°13.662 2°55.961 127 -999 229 -999
2010-08-05 03:56:30 51°13.662 2°55.961 127.1 -999 88 -999
2010-08-05 03:56:35 51°13.662 2°55.961 127.3 -999 177 -999
2010-08-05 03:56:40 51°13.662 2°55.961 127.4 -999 62 -999
2010-08-05 03:56:45 51°13.662 2°55.961 127.4 -999 192 -999
2010-08-05 03:56:50 51°13.662 2°55.961 127.5 -999 142 -999
2010-08-05 03:56:55 51°13.662 2°55.961 127.5 -999 161 -999
2010-08-05 03:57:00 51°13.662 2°55.961 127.6 -999 284 -999
2010-08-05 03:57:05 51°13.662 2°55.961 127.6 -999 307 -999
2010-08-05 03:57:10 51°13.662 2°55.961 127.6 -999 198 -999
2010-08-05 03:57:15 51°13.662 2°55.961 127.5 -999 42 -999
2010-08-05 03:57:20 51°13.662 2°55.961 127.3 -999 23 -999
2010-08-05 03:57:25 51°13.662 2°55.961 127.1 -999 68 -999
2010-08-05 03:57:30 51°13.662 2°55.961 127.1 -999 331 -999
2010-08-05 03:57:35 51°13.662 2°55.961 127 0.1 331 -999
2010-08-05 03:57:40 51°13.662 2°55.961 127 -999 2 -999
2010-08-05 03:57:45 51°13.662 2°55.961 127 -999 15 -999
2010-08-05 03:57:50 51°13.662 2°55.961 127 -999 144 -999
2010-08-05 03:57:55 51°13.662 2°55.961 127.1 -999 222 -999
2010-08-05 03:58:00 51°13.662 2°55.961 127.1 -999 175 -999
2010-08-05 03:58:05 51°13.662 2°55.961 127.1 -999 24 -999
2010-08-05 03:58:10 51°13.662 2°55.961 127.1 -999 357 -999
2010-08-05 03:58:15 51°13.662 2°55.961 127.1 -999 26 -999
2010-08-05 03:58:20 51°13.662 2°55.961 127.1 -999 264 -999
2010-08-05 03:58:25 51°13.662 2°55.961 127.2 -999 223 -999
2010-08-05 03:58:30 51°13.662 2°55.961 127.2 -999 223 -999
2010-08-05 03:58:36 51°13.662 2°55.961 127.3 -999 244 -999
2010-08-05 03:58:40 51°13.662 2°55.961 127.3 -999 34 -999
2010-08-05 03:58:45 51°13.662 2°55.961 127.3 -999 198 -999
2010-08-05 03:58:50 51°13.662 2°55.961 127.3 0.1 198 -999
2010-08-05 03:58:55 51°13.662 2°55.961 127.4 -999 149 -999
2010-08-05 03:59:00 51°13.662 2°55.961 127.4 -999 104 -999
2010-08-05 03:59:05 51°13.662 2°55.961 127.4 0.1 192 -999
2010-08-05 03:59:10 51°13.662 2°55.961 127.4 -999 193 -999
2010-08-05 03:59:15 51°13.662 2°55.961 127.5 0.1 242 -999
2010-08-05 03:59:20 51°13.662 2°55.961 127.6 -999 281 -999
2010-08-05 03:59:25 51°13.662 2°55.961 127.6 -999 219 -999
2010-08-05 03:59:31 51°13.662 2°55.961 127.6 -999 187 -999
2010-08-05 03:59:35 51°13.662 2°55.961 127.5 -999 192 -999
2010-08-05 03:59:40 51°13.662 2°55.961 127.5 -999 220 -999
2010-08-05 03:59:45 51°13.662 2°55.961 127.5 -999 225 -999
2010-08-05 03:59:50 51°13.662 2°55.961 127.5 -999 242 -999
2010-08-05 03:59:55 51°13.662 2°55.961 127.3 -999 248 -999
2010-08-05 04:00:00 51°13.662 2°55.961 127.3 -999 327 -999
2010-08-05 04:00:05 51°13.662 2°55.961 127.3 -999 214 -999
2010-08-05 04:00:10 51°13.662 2°55.961 127.3 -999 285 -999
2010-08-05 04:00:15 51°13.662 2°55.961 127.3 -999 271 -999
2010-08-05 04:00:21 51°13.662 2°55.962 127.2 -999 27 -999
2010-08-05 04:00:26 51°13.662 2°55.962 127.2 -999 145 -999
2010-08-05 04:00:30 51°13.662 2°55.962 127.2 -999 348 -999
2010-08-05 04:00:35 51°13.662 2°55.962 127.2 -999 258 -999
2010-08-05 04:00:40 51°13.662 2°55.962 127.2 -999 357 -999
2010-08-05 04:00:46 51°13.662 2°55.962 127.1 -999 190 -999
2010-08-05 04:00:50 51°13.662 2°55.962 127 -999 212 -999
2010-08-05 04:00:55 51°13.662 2°55.962 126.9 -999 10 -999
2010-08-05 04:01:00 51°13.662 2°55.962 126.9 -999 235 -999
2010-08-05 04:01:05 51°13.662 2°55.962 126.9 -999 231 -999
2010-08-05 04:01:10 51°13.662 2°55.962 126.9 -999 205 -999
2010-08-05 04:01:16 51°13.662 2°55.962 126.9 -999 217 -999
2010-08-05 04:01:20 51°13.662 2°55.962 126.9 -999 193 -999
2010-08-05 04:01:25 51°13.662 2°55.962 126.9 -999 34 -999
2010-08-05 04:01:30 51°13.662 2°55.962 126.9 -999 159 -999
2010-08-05 04:01:35 51°13.662 2°55.962 127 -999 106 -999
2010-08-05 04:01:40 51°13.662 2°55.962 127.1 -999 27 -999
2010-08-05 04:01:45 51°13.662 2°55.962 127.1 -999 75 -999
2010-08-05 04:01:51 51°13.662 2°55.962 127.2 -999 187 -999
2010-08-05 04:01:55 51°13.662 2°55.962 127.3 -999 147 -999
2010-08-05 04:02:00 51°13.662 2°55.963 127.4 -999 108 -999
2010-08-05 04:02:05 51°13.662 2°55.963 127.4 -999 127 -999
2010-08-05 04:02:11 51°13.662 2°55.963 127.5 -999 208 -999
2010-08-05 04:02:15 51°13.662 2°55.963 127.5 -999 28 -999
2010-08-05 04:02:20 51°13.662 2°55.963 127.5 -999 191 -999
2010-08-05 04:02:25 51°13.662 2°55.963 127.5 -999 10 -999
2010-08-05 04:02:31 51°13.662 2°55.963 127.5 -999 223 -999
2010-08-05 04:02:35 51°13.662 2°55.963 127.5 -999 47 -999
2010-08-05 04:02:40 51°13.662 2°55.963 127.5 -999 19 -999
2010-08-05 04:02:45 51°13.662 2°55.963 127.5 -999 21 -999
2010-08-05 04:02:50 51°13.662 2°55.963 127.4 -999 76 -999
2010-08-05 04:02:55 51°13.662 2°55.963 127.4 -999 30 -999
2010-08-05 04:03:01 51°13.662 2°55.963 127.4 -999 345 -999
2010-08-05 04:03:06 51°13.662 2°55.963 127.4 -999 351 -999
2010-08-05 04:03:10 51°13.662 2°55.963 127.4 -999 138 -999
2010-08-05 04:03:15 51°13.662 2°55.963 127.6 -999 224 -999
2010-08-05 04:03:21 51°13.662 2°55.963 127.6 -999 287 -999
2010-08-05 04:03:26 51°13.662 2°55.963 127.6 -999 280 -999
2010-08-05 04:03:30 51°13.662 2°55.963 127.7 -999 229 -999
2010-08-05 04:03:35 51°13.662 2°55.963 127.7 -999 236 -999
2010-08-05 04:03:40 51°13.662 2°55.963 127.7 -999 182 -999
2010-08-05 04:03:45 51°13.662 2°55.963 127.7 -999 83 -999
2010-08-05 04:03:50 51°13.662 2°55.963 127.7 -999 249 -999
2010-08-05 04:03:55 51°13.662 2°55.963 127.7 -999 56 -999
2010-08-05 04:04:00 51°13.662 2°55.963 127.7 -999 157 -999
2010-08-05 04:04:05 51°13.662 2°55.963 127.7 -999 126 -999
2010-08-05 04:04:10 51°13.662 2°55.963 127.7 -999 194 -999
2010-08-05 04:04:16 51°13.662 2°55.963 127.7 -999 180 -999
2010-08-05 04:04:20 51°13.662 2°55.963 127.7 -999 340 -999
2010-08-05 04:04:25 51°13.662 2°55.963 127.7 -999 193 -999
2010-08-05 04:04:30 51°13.662 2°55.963 127.8 -999 196 -999
2010-08-05 04:04:35 51°13.662 2°55.963 127.8 -999 33 -999
2010-08-05 04:04:40 51°13.662 2°55.963 127.8 -999 192 -999
2010-08-05 04:04:45 51°13.662 2°55.963 127.8 -999 124 -999
2010-08-05 04:04:51 51°13.662 2°55.963 127.8 -999 345 -999
2010-08-05 04:04:55 51°13.662 2°55.963 127.8 -999 214 -999
2010-08-05 04:05:00 51°13.662 2°55.962 127.8 -999 210 -999
2010-08-05 04:05:05 51°13.662 2°55.962 127.8 -999 191 -999
2010-08-05 04:05:11 51°13.662 2°55.962 127.8 -999 206 -999
2010-08-05 04:05:15 51°13.662 2°55.962 127.8 -999 198 -999
2010-08-05 04:05:20 51°13.662 2°55.962 127.8 -999 212 -999
2010-08-05 04:05:25 51°13.662 2°55.962 127.8 -999 325 -999
2010-08-05 04:05:31 51°13.662 2°55.962 127.8 -999 305 -999
2010-08-05 04:05:35 51°13.662 2°55.962 127.8 -999 74 -999
2010-08-05 04:05:40 51°13.662 2°55.962 127.8 -999 174 -999
2010-08-05 04:05:45 51°13.662 2°55.962 127.8 -999 347 -999
2010-08-05 04:05:50 51°13.662 2°55.962 127.8 -999 31 -999
2010-08-05 04:05:55 51°13.662 2°55.962 127.8 -999 223 -999
2010-08-05 04:06:01 51°13.662 2°55.962 127.8 -999 237 -999
2010-08-05 04:06:05 51°13.662 2°55.962 127.8 -999 204 -999
2010-08-05 04:06:10 51°13.662 2°55.962 127.8 -999 186 -999
2010-08-05 04:06:15 51°13.662 2°55.962 127.8 -999 328 -999
2010-08-05 04:06:20 51°13.662 2°55.962 127.7 -999 313 -999
2010-08-05 04:06:26 51°13.662 2°55.962 127.6 -999 189 -999
2010-08-05 04:06:30 51°13.662 2°55.962 127.5 -999 145 -999
2010-08-05 04:06:36 51°13.662 2°55.962 127.4 -999 19 -999
2010-08-05 04:06:40 51°13.662 2°55.962 127.3 -999 262 -999
2010-08-05 04:06:45 51°13.662 2°55.962 127.2 -999 200 -999
2010-08-05 04:06:50 51°13.662 2°55.962 127.2 -999 1 -999
2010-08-05 04:06:55 51°13.662 2°55.962 127.1 -999 314 -999
2010-08-05 04:07:00 51°13.662 2°55.962 127.1 -999 286 -999
2010-08-05 04:07:05 51°13.662 2°55.962 127.1 -999 173 -999
2010-08-05 04:07:10 51°13.662 2°55.962 127 -999 52 -999
2010-08-05 04:07:15 51°13.662 2°55.962 127 -999 359 -999
2010-08-05 04:07:20 51°13.662 2°55.962 127 -999 20 -999
2010-08-05 04:07:25 51°13.662 2°55.962 127 -999 213 -999
2010-08-05 04:07:30 51°13.662 2°55.962 127 -999 188 -999
2010-08-05 04:07:35 51°13.662 2°55.962 127.1 -999 176 -999
2010-08-05 04:07:40 51°13.662 2°55.962 127.1 -999 48 -999
2010-08-05 04:07:45 51°13.662 2°55.962 127.2 -999 201 -999
2010-08-05 04:07:51 51°13.662 2°55.962 127.3 -999 178 -999
2010-08-05 04:07:55 51°13.662 2°55.962 127.4 -999 161 -999
2010-08-05 04:08:00 51°13.662 2°55.962 127.5 -999 104 -999
2010-08-05 04:08:05 51°13.662 2°55.962 127.6 -999 241 -999
2010-08-05 04:08:10 51°13.662 2°55.962 127.6 -999 220 -999
2010-08-05 04:08:15 51°13.662 2°55.962 127.7 -999 213 -999
2010-08-05 04:08:20 51°13.662 2°55.962 127.7 -999 213 -999
2010-08-05 04:08:25 51°13.662 2°55.962 127.6 -999 206 -999
2010-08-05 04:08:30 51°13.662 2°55.962 127.6 -999 356 -999
2010-08-05 04:08:35 51°13.662 2°55.962 127.6 -999 73 -999
2010-08-05 04:08:40 51°13.662 2°55.962 127.5 -999 29 -999
2010-08-05 04:08:45 51°13.662 2°55.962 127.5 -999 198 -999
2010-08-05 04:08:50 51°13.662 2°55.962 127.5 -999 211 -999
2010-08-05 04:08:55 51°13.662 2°55.962 127.6 -999 205 -999
2010-08-05 04:09:00 51°13.662 2°55.962 127.7 -999 193 -999
2010-08-05 04:09:05 51°13.662 2°55.962 127.8 -999 241 -999
2010-08-05 04:09:10 51°13.662 2°55.962 127.8 -999 251 -999
2010-08-05 04:09:15 51°13.662 2°55.962 128 -999 210 -999
2010-08-05 04:09:20 51°13.662 2°55.962 128 -999 242 -999
2010-08-05 04:09:25 51°13.662 2°55.962 128 -999 266 -999
2010-08-05 04:09:30 51°13.662 2°55.962 128 -999 352 -999
2010-08-05 04:09:35 51°13.662 2°55.962 128 -999 265 -999
2010-08-05 04:09:40 51°13.662 2°55.962 128 -999 52 -999
2010-08-05 04:09:45 51°13.662 2°55.962 127.9 -999 219 -999
2010-08-05 04:09:50 51°13.662 2°55.962 127.8 -999 350 -999
2010-08-05 04:09:55 51°13.662 2°55.962 127.8 -999 297 -999
2010-08-05 04:10:00 51°13.662 2°55.962 127.8 -999 150 -999
2010-08-05 04:10:05 51°13.662 2°55.962 127.8 0.1 190 -999
2010-08-05 04:10:10 51°13.662 2°55.962 127.8 0.1 188 -999
2010-08-05 04:10:15 51°13.662 2°55.962 127.8 -999 215 -999
2010-08-05 04:10:20 51°13.662 2°55.961 127.8 -999 311 -999
2010-08-05 04:10:25 51°13.662 2°55.961 127.8 -999 253 -999
2010-08-05 04:10:30 51°13.662 2°55.961 127.8 -999 3 -999
2010-08-05 04:10:35 51°13.662 2°55.961 127.8 -999 199 -999
2010-08-05 04:10:40 51°13.662 2°55.961 127.8 -999 199 -999
2010-08-05 04:10:45 51°13.662 2°55.961 127.8 -999 218 -999
2010-08-05 04:10:50 51°13.662 2°55.961 127.8 -999 292 -999
2010-08-05 04:10:55 51°13.662 2°55.961 127.8 -999 290 -999
2010-08-05 04:11:00 51°13.662 2°55.961 127.8 -999 14 -999
2010-08-05 04:11:05 51°13.662 2°55.961 127.8 -999 59 -999
2010-08-05 04:11:10 51°13.662 2°55.961 127.8 -999 90 -999
2010-08-05 04:11:15 51°13.662 2°55.961 127.8 -999 67 -999
2010-08-05 04:11:20 51°13.663 2°55.961 127.8 -999 42 -999
2010-08-05 04:11:25 51°13.662 2°55.961 127.8 -999 9 -999
2010-08-05 04:11:30 51°13.662 2°55.962 127.8 -999 152 -999
2010-08-05 04:11:35 51°13.662 2°55.962 127.8 0.1 191 -999
2010-08-05 04:11:40 51°13.662 2°55.961 127.8 -999 198 -999
2010-08-05 04:11:46 51°13.662 2°55.961 127.8 -999 332 -999
2010-08-05 04:11:50 51°13.662 2°55.961 127.8 -999 333 -999
2010-08-05 04:11:55 51°13.663 2°55.961 127.8 -999 7 -999
2010-08-05 04:12:00 51°13.663 2°55.961 127.8 -999 1 -999
2010-08-05 04:12:05 51°13.663 2°55.961 127.8 -999 195 -999
2010-08-05 04:12:10 51°13.663 2°55.961 127.8 -999 351 -999
2010-08-05 04:12:15 51°13.663 2°55.961 127.8 -999 121 -999
2010-08-05 04:12:20 51°13.663 2°55.961 127.8 -999 35 -999
2010-08-05 04:12:25 51°13.663 2°55.961 127.8 -999 247 -999
2010-08-05 04:12:30 51°13.663 2°55.961 127.8 -999 206 -999
2010-08-05 04:12:35 51°13.663 2°55.961 127.8 -999 199 -999
2010-08-05 04:12:40 51°13.662 2°55.961 127.8 -999 199 -999
2010-08-05 04:12:45 51°13.662 2°55.961 127.8 -999 220 -999
2010-08-05 04:12:50 51°13.663 2°55.96 127.8 -999 279 -999
2010-08-05 04:12:55 51°13.663 2°55.96 127.8 -999 259 -999
2010-08-05 04:13:00 51°13.663 2°55.96 127.8 -999 351 -999
2010-08-05 04:13:05 51°13.663 2°55.96 127.8 -999 355 -999
2010-08-05 04:13:10 51°13.663 2°55.96 127.8 -999 22 -999
2010-08-05 04:13:15 51°13.663 2°55.96 127.8 -999 293 -999
2010-08-05 04:13:20 51°13.663 2°55.96 127.8 -999 42 -999
2010-08-05 04:13:25 51°13.663 2°55.961 127.8 -999 173 -999
2010-08-05 04:13:30 51°13.663 2°55.96 127.8 -999 202 -999
2010-08-05 04:13:35 51°13.663 2°55.96 127.8 -999 300 -999
2010-08-05 04:13:40 51°13.662 2°55.96 127.8 -999 220 -999
2010-08-05 04:13:45 51°13.662 2°55.96 127.8 -999 182 -999
2010-08-05 04:13:50 51°13.662 2°55.96 127.8 -999 276 -999
2010-08-05 04:13:55 51°13.662 2°55.96 127.8 -999 55 -999
2010-08-05 04:14:01 51°13.662 2°55.96 127.9 -999 49 -999
2010-08-05 04:14:06 51°13.662 2°55.96 127.9 -999 242 -999
2010-08-05 04:14:10 51°13.662 2°55.96 127.9 -999 20 -999
2010-08-05 04:14:15 51°13.662 2°55.96 127.9 -999 233 -999
2010-08-05 04:14:20 51°13.662 2°55.96 127.8 -999 85 -999
2010-08-05 04:14:26 51°13.662 2°55.96 127.8 -999 185 -999
2010-08-05 04:14:30 51°13.662 2°55.96 127.7 -999 236 -999
2010-08-05 04:14:53 51°13.663 2°55.96 127.5 -999 221 -999
2010-08-05 04:14:58 51°13.663 2°55.96 127.5 -999 194 -999
2010-08-05 04:16:46 51°13.662 2°55.96 127.7 -999 263 -999
2010-08-05 04:16:47 51°13.662 2°55.96 127.7 -999 263 -999
2010-08-05 04:17:07 51°13.662 2°55.96 127.7 -999 15 -999
2010-08-05 04:17:12 51°13.662 2°55.96 127.7 -999 74 -999
2010-08-05 04:17:18 51°13.662 2°55.96 127.6 -999 159 -999